createdAt,value
2023-05-10T00:02:25.857Z,15.03
2023-05-10T00:05:14.297Z,15.11
2023-05-10T00:08:04.034Z,15.24
2023-05-10T00:10:52.498Z,15.36
2023-05-10T00:13:40.859Z,15.44
2023-05-10T00:16:29.474Z,15.47
2023-05-10T00:19:17.906Z,15.43
2023-05-10T00:22:06.284Z,15.45
2023-05-10T00:24:55.976Z,15.36
2023-05-10T00:27:44.349Z,15.40
2023-05-10T00:30:33.228Z,15.21
2023-05-10T00:33:21.657Z,15.25
2023-05-10T00:36:10.300Z,15.10
2023-05-10T00:38:58.662Z,15.04
2023-05-10T00:41:48.384Z,15.00
2023-05-10T00:44:38.276Z,15.02
2023-05-10T00:47:27.882Z,15.02
2023-05-10T00:50:17.031Z,15.05
2023-05-10T00:53:05.626Z,15.07
2023-05-10T00:55:54.066Z,15.11
2023-05-10T00:58:44.631Z,15.13
2023-05-10T01:01:33.100Z,15.20
2023-05-10T01:04:26.403Z,15.14
2023-05-10T01:07:14.844Z,15.26
2023-05-10T01:10:03.478Z,15.31
2023-05-10T01:12:52.236Z,15.34
2023-05-10T01:15:42.159Z,15.35
2023-05-10T01:18:31.832Z,15.34
2023-05-10T01:21:26.170Z,15.34
2023-05-10T01:24:42.220Z,15.28
2023-05-10T01:27:53.482Z,14.99
2023-05-10T01:31:06.672Z,14.84
2023-05-10T01:34:00.003Z,14.75
2023-05-10T01:36:53.413Z,14.80
2023-05-10T01:39:48.122Z,14.65
2023-05-10T01:42:42.444Z,14.51
2023-05-10T01:45:35.525Z,14.38
2023-05-10T01:48:25.629Z,14.61
2023-05-10T01:51:16.509Z,14.64
2023-05-10T01:54:05.989Z,14.51
2023-05-10T01:56:59.722Z,14.53
2023-05-10T01:59:52.014Z,14.60
2023-05-10T02:02:43.108Z,14.57
2023-05-10T02:05:34.337Z,14.69
2023-05-10T02:08:24.850Z,14.77
2023-05-10T02:11:14.943Z,14.65
2023-05-10T02:14:03.508Z,14.73
2023-05-10T02:16:53.074Z,14.64
2023-05-10T02:19:43.026Z,14.40
2023-05-10T02:22:31.803Z,14.45
2023-05-10T02:25:21.924Z,14.47
2023-05-10T02:28:12.842Z,14.53
2023-05-10T02:31:01.363Z,14.43
2023-05-10T02:33:50.586Z,14.52
2023-05-10T02:36:40.576Z,14.47
2023-05-10T02:39:29.872Z,14.53
2023-05-10T02:42:22.015Z,14.49
2023-05-10T02:45:14.177Z,14.46
2023-05-10T02:48:04.422Z,14.54
2023-05-10T02:50:54.865Z,14.26
2023-05-10T02:53:46.179Z,14.39
2023-05-10T02:56:36.725Z,14.33
2023-05-10T02:59:26.555Z,14.29
2023-05-10T03:02:15.178Z,14.25
2023-05-10T03:05:04.056Z,14.28
2023-05-10T03:07:52.873Z,14.29
2023-05-10T03:10:52.690Z,14.40
2023-05-10T03:13:47.729Z,14.29
2023-05-10T03:16:44.932Z,14.18
2023-05-10T03:19:37.080Z,14.25
2023-05-10T03:22:28.192Z,14.24
2023-05-10T03:25:17.781Z,14.12
2023-05-10T03:28:06.713Z,14.21
2023-05-10T03:30:56.313Z,14.10
2023-05-10T03:33:50.254Z,14.20
2023-05-10T03:36:43.916Z,14.22
2023-05-10T03:39:32.531Z,14.20
2023-05-10T03:42:22.716Z,14.28
2023-05-10T03:45:11.969Z,14.28
2023-05-10T03:48:01.580Z,14.32
2023-05-10T03:50:51.436Z,14.33
2023-05-10T03:53:39.855Z,14.32
2023-05-10T03:56:28.276Z,14.34
2023-05-10T03:59:16.737Z,14.30
2023-05-10T04:02:05.273Z,14.30
2023-05-10T04:04:53.747Z,14.36
2023-05-10T04:07:45.330Z,14.29
2023-05-10T04:10:34.436Z,14.21
2023-05-10T04:13:23.645Z,14.11
2023-05-10T04:16:12.042Z,14.23
2023-05-10T04:19:00.837Z,14.17
2023-05-10T04:21:49.243Z,14.19
2023-05-10T04:24:38.960Z,14.16
2023-05-10T04:27:27.486Z,14.09
2023-05-10T04:30:16.190Z,13.94
2023-05-10T04:33:05.260Z,14.04
2023-05-10T04:35:53.639Z,14.01
2023-05-10T04:38:42.022Z,14.10
2023-05-10T04:41:31.981Z,13.96
2023-05-10T04:44:20.628Z,13.95
2023-05-10T04:47:10.501Z,13.96
2023-05-10T04:50:01.115Z,14.00
2023-05-10T04:52:49.499Z,13.85
2023-05-10T04:55:37.923Z,13.89
2023-05-10T04:58:27.631Z,13.95
2023-05-10T05:01:16.048Z,13.83
2023-05-10T05:04:04.732Z,13.92
2023-05-10T05:06:54.040Z,13.93
2023-05-10T05:09:43.605Z,13.79
2023-05-10T05:12:32.085Z,13.89
2023-05-10T05:15:22.014Z,13.87
2023-05-10T05:18:10.603Z,13.92
2023-05-10T05:20:59.075Z,13.79
2023-05-10T05:23:47.723Z,13.65
2023-05-10T05:26:36.237Z,13.61
2023-05-10T05:29:24.640Z,13.62
2023-05-10T05:32:14.364Z,13.75
2023-05-10T05:35:02.750Z,13.74
2023-05-10T05:37:51.149Z,13.70
2023-05-10T05:40:39.578Z,13.68
2023-05-10T05:43:28.000Z,13.78
2023-05-10T05:46:16.412Z,13.82
2023-05-10T05:49:06.703Z,13.77
2023-05-10T05:51:55.139Z,13.93
2023-05-10T05:54:43.520Z,13.89
2023-05-10T05:57:32.431Z,13.81
2023-05-10T06:00:20.870Z,13.81
2023-05-10T06:03:09.657Z,13.86
2023-05-10T06:05:59.558Z,13.80
2023-05-10T06:08:48.003Z,13.86
2023-05-10T06:11:36.510Z,13.93
2023-05-10T06:14:25.101Z,14.03
2023-05-10T06:17:13.505Z,13.92
2023-05-10T06:20:01.909Z,13.89
2023-05-10T06:22:52.014Z,13.96
2023-05-10T06:25:40.393Z,13.99
2023-05-10T06:28:28.807Z,13.90
2023-05-10T06:31:17.213Z,13.90
2023-05-10T06:34:05.675Z,14.01
2023-05-10T06:36:54.045Z,14.12
2023-05-10T06:39:43.911Z,13.81
2023-05-10T06:42:32.494Z,13.87
2023-05-10T06:45:21.233Z,13.98
2023-05-10T06:48:09.774Z,14.18
2023-05-10T06:50:58.238Z,14.32
2023-05-10T06:53:46.611Z,14.35
2023-05-10T06:56:36.394Z,14.28
2023-05-10T06:59:25.225Z,14.16
2023-05-10T07:02:13.951Z,14.04
2023-05-10T07:05:03.650Z,14.30
2023-05-10T07:07:52.736Z,14.29
2023-05-10T07:10:41.192Z,14.44
2023-05-10T07:13:31.246Z,14.39
2023-05-10T07:16:19.746Z,14.28
2023-05-10T07:19:08.673Z,14.25
2023-05-10T07:21:57.178Z,14.40
2023-05-10T07:24:47.735Z,14.43
2023-05-10T07:27:36.154Z,14.52
2023-05-10T07:30:26.024Z,14.30
2023-05-10T07:33:15.564Z,14.30
2023-05-10T07:36:04.108Z,14.28
2023-05-10T07:38:52.522Z,14.38
2023-05-10T07:41:41.007Z,14.50
2023-05-10T07:44:29.400Z,14.49
2023-05-10T07:47:19.156Z,14.57
2023-05-10T07:50:09.640Z,14.53
2023-05-10T07:52:58.077Z,14.63
2023-05-10T07:55:47.017Z,14.59
2023-05-10T07:58:35.425Z,14.48
2023-05-10T08:01:24.316Z,14.43
2023-05-10T08:04:14.221Z,14.50
2023-05-10T08:07:02.723Z,14.62
2023-05-10T08:09:51.096Z,14.59
2023-05-10T08:12:39.824Z,14.70
2023-05-10T08:15:28.217Z,14.63
2023-05-10T08:18:16.642Z,14.89
2023-05-10T08:21:06.519Z,14.89
2023-05-10T08:23:55.223Z,14.80
2023-05-10T08:26:43.579Z,14.78
2023-05-10T08:29:38.631Z,15.00
2023-05-10T08:32:36.007Z,15.09
2023-05-10T08:35:25.351Z,15.23
2023-05-10T08:38:15.098Z,15.40
2023-05-10T08:41:04.362Z,15.36
2023-05-10T08:43:53.610Z,15.56
2023-05-10T08:46:45.071Z,15.73
2023-05-10T08:49:34.589Z,15.69
2023-05-10T08:52:28.925Z,15.75
2023-05-10T08:55:18.994Z,15.77
2023-05-10T08:58:07.863Z,15.76
2023-05-10T09:00:56.369Z,15.83
2023-05-10T09:03:45.253Z,15.85
2023-05-10T09:06:34.254Z,15.84
2023-05-10T09:09:23.681Z,15.84
2023-05-10T09:12:20.505Z,15.99
2023-05-10T09:15:09.686Z,16.09
2023-05-10T09:17:59.138Z,16.23
2023-05-10T09:20:47.654Z,16.45
2023-05-10T09:26:25.129Z,16.63
2023-05-10T09:29:16.700Z,16.65
2023-05-10T09:32:06.144Z,16.73
2023-05-10T09:34:54.667Z,16.87
2023-05-10T09:37:44.856Z,16.79
2023-05-10T09:40:33.735Z,16.65
2023-05-10T09:43:22.383Z,16.38
2023-05-10T09:46:12.310Z,16.33
2023-05-10T09:49:01.035Z,16.41
2023-05-10T09:51:49.467Z,16.41
2023-05-10T09:54:38.008Z,16.28
2023-05-10T09:57:26.990Z,16.21
2023-05-10T10:00:20.043Z,16.09
2023-05-10T10:03:14.893Z,16.22
2023-05-10T10:06:03.397Z,16.24
2023-05-10T10:08:52.048Z,16.05
2023-05-10T10:11:42.461Z,16.22
2023-05-10T10:14:31.333Z,16.38
2023-05-10T10:17:19.934Z,16.45
2023-05-10T10:20:12.084Z,16.30
2023-05-10T10:23:00.714Z,16.51
2023-05-10T10:25:49.985Z,16.60
2023-05-10T10:28:43.360Z,16.71
2023-05-10T10:31:39.898Z,16.74
2023-05-10T10:34:30.029Z,16.79
2023-05-10T10:37:19.819Z,16.76
2023-05-10T10:40:27.172Z,16.99
2023-05-10T10:43:26.451Z,16.92
2023-05-10T10:46:15.971Z,17.17
2023-05-10T10:49:11.482Z,17.39
2023-05-10T10:52:16.076Z,17.30
2023-05-10T10:55:09.383Z,17.22
2023-05-10T10:58:03.235Z,17.32
2023-05-10T11:00:51.801Z,17.51
2023-05-10T11:03:40.225Z,17.47
2023-05-10T11:06:32.757Z,17.73
2023-05-10T11:09:21.796Z,17.72
2023-05-10T11:12:11.715Z,17.68
2023-05-10T11:15:00.152Z,17.84
2023-05-10T11:17:53.051Z,17.95
2023-05-10T11:20:41.801Z,18.10
2023-05-10T11:23:34.209Z,18.18
2023-05-10T11:26:26.182Z,18.41
2023-05-10T11:29:16.017Z,18.42
2023-05-10T11:32:09.119Z,18.46
2023-05-10T11:34:57.527Z,18.33
2023-05-10T11:37:50.256Z,18.46
2023-05-10T11:40:39.663Z,18.44
2023-05-10T11:43:31.613Z,17.88
2023-05-10T11:46:22.844Z,17.90
2023-05-10T11:49:11.310Z,18.05
2023-05-10T11:52:08.722Z,18.03
2023-05-10T11:54:57.521Z,18.13
2023-05-10T11:57:47.007Z,18.27
2023-05-10T12:00:35.567Z,18.24
2023-05-10T12:03:25.510Z,18.22
2023-05-10T12:06:14.010Z,18.19
2023-05-10T12:09:07.839Z,18.21
2023-05-10T12:11:58.201Z,18.15
2023-05-10T12:14:51.294Z,18.03
2023-05-10T12:17:41.943Z,18.03
2023-05-10T12:20:33.250Z,17.95
2023-05-10T12:23:22.076Z,17.99
2023-05-10T12:26:11.567Z,17.61
2023-05-10T12:29:14.854Z,17.42
2023-05-10T12:32:04.254Z,17.07
2023-05-10T12:34:54.730Z,17.07
2023-05-10T12:37:45.055Z,17.34
2023-05-10T12:40:33.440Z,16.95
2023-05-10T12:43:22.169Z,17.12
2023-05-10T12:46:11.530Z,16.83
2023-05-10T12:49:08.614Z,17.12
2023-05-10T12:51:58.073Z,17.32
2023-05-10T12:54:47.862Z,17.07
2023-05-10T12:57:36.253Z,17.13
2023-05-10T13:00:24.673Z,16.85
2023-05-10T13:03:13.134Z,16.36
2023-05-10T13:06:01.549Z,16.45
2023-05-10T13:08:50.061Z,16.55
2023-05-10T13:11:39.818Z,16.64
2023-05-10T13:14:29.300Z,16.64
2023-05-10T13:17:17.888Z,16.71
2023-05-10T13:20:08.541Z,16.78
2023-05-10T13:22:56.990Z,16.93
2023-05-10T13:25:45.606Z,16.76
2023-05-10T13:28:35.628Z,16.41
2023-05-10T13:31:24.027Z,16.17
2023-05-10T13:34:12.451Z,16.27
2023-05-10T13:37:00.869Z,16.12
2023-05-10T13:39:49.607Z,16.22
2023-05-10T13:42:38.574Z,15.73
2023-05-10T13:45:28.403Z,15.76
2023-05-10T13:48:17.120Z,15.71
2023-05-10T13:51:05.670Z,15.68
2023-05-10T13:53:54.150Z,15.57
2023-05-10T13:56:44.897Z,15.64
2023-05-10T13:59:33.370Z,15.49
2023-05-10T14:02:23.135Z,15.47
2023-05-10T14:05:11.517Z,15.60
2023-05-10T14:07:59.898Z,15.35
2023-05-10T14:10:48.308Z,15.19
2023-05-10T14:13:36.750Z,15.24
2023-05-10T14:16:25.188Z,15.38
2023-05-10T14:19:14.955Z,15.29
2023-05-10T14:22:03.775Z,15.55
2023-05-10T14:24:52.218Z,15.45
2023-05-10T14:27:40.584Z,15.60
2023-05-10T14:30:29.061Z,15.44
2023-05-10T14:33:18.562Z,15.42
2023-05-10T14:36:09.492Z,15.39
2023-05-10T14:38:57.873Z,15.32
2023-05-10T14:41:46.754Z,15.45
2023-05-10T14:44:35.171Z,15.55
2023-05-10T14:47:23.694Z,15.51
2023-05-10T14:50:21.513Z,15.50
2023-05-10T14:53:21.943Z,15.12
2023-05-10T14:56:10.337Z,15.29
2023-05-10T14:58:58.805Z,15.54
2023-05-10T15:01:47.612Z,15.51
2023-05-10T15:04:36.555Z,15.14
2023-05-10T15:07:25.586Z,15.07
2023-05-10T15:10:15.704Z,15.15
2023-05-10T15:13:06.111Z,15.13
2023-05-10T15:15:54.618Z,14.90
2023-05-10T15:18:43.116Z,15.00
2023-05-10T15:21:36.063Z,15.08
2023-05-10T15:24:24.527Z,15.38
2023-05-10T15:27:14.301Z,15.39
2023-05-10T15:30:02.727Z,15.40
2023-05-10T15:32:51.221Z,15.46
2023-05-10T15:35:40.563Z,15.61
2023-05-10T15:38:28.971Z,15.52
2023-05-10T15:41:18.049Z,15.50
2023-05-10T15:44:07.808Z,15.65
2023-05-10T15:46:56.900Z,15.69
2023-05-10T15:49:45.338Z,15.66
2023-05-10T15:52:33.737Z,15.42
2023-05-10T15:55:22.229Z,15.22
2023-05-10T15:58:11.256Z,14.83
2023-05-10T16:01:01.099Z,14.52
2023-05-10T16:03:49.511Z,14.27
2023-05-10T16:06:38.141Z,14.57
2023-05-10T16:09:26.702Z,14.76
2023-05-10T16:12:15.123Z,14.90
2023-05-10T16:15:03.780Z,14.78
2023-05-10T16:17:53.849Z,14.61
2023-05-10T16:20:42.367Z,14.62
2023-05-10T16:23:30.904Z,14.55
2023-05-10T16:26:19.281Z,14.47
2023-05-10T16:29:08.004Z,14.34
2023-05-10T16:31:56.396Z,14.36
2023-05-10T16:34:46.173Z,14.34
2023-05-10T16:37:34.544Z,14.23
2023-05-10T16:40:23.989Z,14.09
2023-05-10T16:43:12.390Z,13.92
2023-05-10T16:46:00.798Z,14.07
2023-05-10T16:48:49.243Z,14.14
2023-05-10T16:51:39.004Z,14.14
2023-05-10T16:54:27.402Z,13.97
2023-05-10T16:57:15.806Z,13.94
2023-05-10T17:00:04.465Z,13.81
2023-05-10T17:02:54.087Z,13.67
2023-05-10T17:05:43.242Z,13.70
2023-05-10T17:08:32.953Z,13.81
2023-05-10T17:11:21.933Z,13.68
2023-05-10T17:14:10.372Z,13.45
2023-05-10T17:16:58.931Z,13.49
2023-05-10T17:19:47.508Z,13.35
2023-05-10T17:22:35.934Z,13.18
2023-05-10T17:25:25.691Z,12.90
2023-05-10T17:28:15.663Z,12.86
2023-05-10T17:31:04.209Z,12.94
2023-05-10T17:33:52.839Z,12.81
2023-05-10T17:36:41.262Z,12.79
2023-05-10T17:39:29.639Z,12.75
2023-05-10T17:42:20.794Z,12.73
2023-05-10T17:45:10.498Z,12.67
2023-05-10T17:47:58.922Z,12.74
2023-05-10T17:50:47.326Z,12.75
2023-05-10T17:53:36.113Z,12.72
2023-05-10T17:56:24.523Z,12.70
2023-05-10T17:59:14.305Z,12.63
2023-05-10T18:02:03.540Z,12.64
2023-05-10T18:04:52.047Z,12.64
2023-05-10T18:07:40.591Z,12.44
2023-05-10T18:10:29.049Z,12.43
2023-05-10T18:13:17.558Z,12.33
2023-05-10T18:16:08.840Z,12.37
2023-05-10T18:18:57.359Z,12.41
2023-05-10T18:21:45.793Z,12.55
2023-05-10T18:24:39.429Z,12.54
2023-05-10T18:27:28.797Z,12.52
2023-05-10T18:30:17.447Z,12.57
2023-05-10T18:33:07.607Z,12.51
2023-05-10T18:35:56.095Z,12.49
2023-05-10T18:38:44.603Z,12.46
2023-05-10T18:41:33.001Z,12.47
2023-05-10T18:44:21.979Z,12.47
2023-05-10T18:47:10.475Z,12.43
2023-05-10T18:50:00.242Z,12.55
2023-05-10T18:52:48.953Z,12.28
2023-05-10T18:55:37.464Z,12.31
2023-05-10T18:58:26.065Z,12.19
2023-05-10T19:01:14.615Z,12.28
2023-05-10T19:04:03.112Z,12.31
2023-05-10T19:06:52.996Z,12.42
2023-05-10T19:09:41.602Z,12.33
2023-05-10T19:12:30.071Z,12.17
2023-05-10T19:15:20.150Z,12.31
2023-05-10T19:18:10.331Z,12.39
2023-05-10T19:20:58.863Z,12.28
2023-05-10T19:23:49.298Z,12.25
2023-05-10T19:26:37.788Z,12.19
2023-05-10T19:29:27.280Z,12.14
2023-05-10T19:32:15.808Z,12.01
2023-05-10T19:35:04.566Z,12.08
2023-05-10T19:37:53.654Z,12.17
2023-05-10T19:40:43.696Z,12.18
2023-05-10T19:43:34.523Z,12.18
2023-05-10T19:46:23.104Z,12.06
2023-05-10T19:49:11.596Z,12.09
2023-05-10T19:52:00.097Z,12.25
2023-05-10T19:54:48.574Z,12.46
2023-05-10T19:57:38.461Z,12.47
2023-05-10T20:00:27.726Z,12.58
2023-05-10T20:03:16.686Z,12.35
2023-05-10T20:06:05.433Z,12.45
2023-05-10T20:08:54.112Z,12.38
2023-05-10T20:11:42.578Z,12.55
2023-05-10T20:14:32.453Z,12.48
2023-05-10T20:17:20.975Z,12.57
2023-05-10T20:20:09.816Z,12.63
2023-05-10T20:22:58.343Z,12.23
2023-05-10T20:25:47.125Z,12.30
2023-05-10T20:28:36.135Z,12.31
2023-05-10T20:31:25.997Z,12.16
2023-05-10T20:34:14.526Z,12.06
2023-05-10T20:37:03.143Z,12.06
2023-05-10T20:39:51.666Z,11.92
2023-05-10T20:42:40.151Z,11.85
2023-05-10T20:45:28.619Z,11.76
2023-05-10T20:48:19.501Z,11.59
2023-05-10T20:51:08.164Z,11.56
2023-05-10T20:53:57.201Z,11.53
2023-05-10T20:56:45.745Z,11.56
2023-05-10T20:59:34.334Z,11.64
2023-05-10T21:02:22.715Z,11.58
2023-05-10T21:05:13.212Z,11.76
2023-05-10T21:08:01.665Z,11.76
2023-05-10T21:10:50.268Z,11.73
2023-05-10T21:13:38.639Z,11.59
2023-05-10T21:16:28.158Z,11.61
2023-05-10T21:19:17.121Z,11.66
2023-05-10T21:22:07.662Z,11.73
2023-05-10T21:24:56.045Z,11.78
2023-05-10T21:27:44.416Z,11.70
2023-05-10T21:30:33.420Z,11.55
2023-05-10T21:33:21.810Z,11.61
2023-05-10T21:36:10.245Z,11.64
2023-05-10T21:39:00.018Z,11.43
2023-05-10T21:41:48.366Z,11.49
2023-05-10T21:44:37.100Z,11.64
2023-05-10T21:47:25.483Z,11.51
2023-05-10T21:50:13.874Z,11.55
2023-05-10T21:53:02.835Z,11.57
2023-05-10T21:55:52.648Z,11.56
2023-05-10T21:58:41.041Z,11.45
2023-05-10T22:01:29.508Z,11.61
2023-05-10T22:04:17.916Z,11.58
2023-05-10T22:07:06.374Z,11.63
2023-05-10T22:09:54.843Z,11.56
2023-05-10T22:12:44.598Z,11.58
2023-05-10T22:15:36.155Z,11.64
2023-05-10T22:18:25.069Z,11.54
2023-05-10T22:21:13.502Z,11.68
2023-05-10T22:24:01.866Z,11.69
2023-05-10T22:26:50.242Z,11.56
2023-05-10T22:29:40.006Z,11.64
2023-05-10T22:32:28.486Z,11.57
2023-05-10T22:35:16.883Z,11.54
2023-05-10T22:38:05.300Z,11.64
2023-05-10T22:40:53.723Z,11.45
2023-05-10T22:43:42.064Z,11.55
2023-05-10T22:46:32.528Z,11.50
2023-05-10T22:49:20.932Z,11.33
2023-05-10T22:52:09.347Z,11.36
2023-05-10T22:54:57.739Z,11.42
2023-05-10T22:57:46.087Z,11.46
2023-05-10T23:00:34.512Z,11.55
2023-05-10T23:03:24.256Z,11.38
2023-05-10T23:06:12.669Z,11.44
2023-05-10T23:09:01.031Z,11.08
2023-05-10T23:11:49.391Z,11.20
2023-05-10T23:14:38.157Z,11.34
2023-05-10T23:17:26.562Z,11.37
2023-05-10T23:20:17.144Z,11.30
2023-05-10T23:23:05.803Z,11.15
2023-05-10T23:25:54.314Z,11.21
2023-05-10T23:28:42.686Z,11.28
2023-05-10T23:31:31.375Z,11.44
2023-05-10T23:34:19.808Z,11.50
2023-05-10T23:37:09.559Z,11.43
2023-05-10T23:39:57.968Z,11.44
2023-05-10T23:42:46.398Z,11.37
2023-05-10T23:45:34.867Z,11.16
2023-05-10T23:48:23.363Z,11.03
2023-05-10T23:51:11.834Z,10.98
2023-05-10T23:54:02.122Z,11.02
2023-05-10T23:56:51.536Z,11.12
2023-05-10T23:59:39.872Z,11.00
